Time;durP1;ratioP1;P1;durP2;ratioP2;P2;SDS_P1;SDS_P2;PMS_P1;PMS_P2;Temp;Humidity;BMP_temperature;BMP_pressure;BME280_temperature;BME280_humidity;BME280_pressure;Samples;Min_cycle;Max_cycle;Signal;HPM_P1;HPM_P2
2021/01/12 00:00:34;;;;;;;83.27;39.57;;;;;;;0.18;72.58;100117.67;124342;1148;22687;-63
2021/01/12 00:03:01;;;;;;;83.17;37.77;;;;;;;0.20;72.51;100114.83;124063;1149;23479;-63
2021/01/12 00:05:29;;;;;;;80.65;37.55;;;;;;;0.19;72.65;100122.03;124288;1148;22751;-63
2021/01/12 00:07:56;;;;;;;88.35;39.65;;;;;;;0.20;72.98;100120.19;124105;1148;23435;-63
2021/01/12 00:10:24;;;;;;;80.00;37.10;;;;;;;0.19;72.50;100116.67;124216;1148;23608;-63
2021/01/12 00:12:52;;;;;;;89.33;39.23;;;;;;;0.19;72.78;100122.03;124150;1148;23355;-63
2021/01/12 00:15:20;;;;;;;79.75;36.70;;;;;;;0.20;72.13;100120.19;124204;1148;22701;-64
2021/01/12 00:17:48;;;;;;;81.60;36.45;;;;;;;0.23;72.90;100120.67;124098;1148;22768;-64
2021/01/12 00:20:15;;;;;;;88.25;38.15;;;;;;;0.22;72.53;100116.32;124149;1149;22665;-64
2021/01/12 00:22:43;;;;;;;86.10;39.65;;;;;;;0.22;71.87;100119.00;124166;1149;22846;-64
2021/01/12 00:25:10;;;;;;;73.15;32.85;;;;;;;0.22;72.40;100120.84;124058;1148;22682;-63
2021/01/12 00:27:54;;;;;;;63.20;29.97;;;;;;;0.21;72.65;100121.86;119499;1150;22928;-63
2021/01/12 00:30:22;;;;;;;52.10;27.05;;;;;;;0.20;72.19;100125.55;124216;1148;22825;-64
2021/01/12 00:32:51;;;;;;;65.87;34.43;;;;;;;0.19;72.58;100116.67;124166;1148;22696;-63
2021/01/12 00:35:20;;;;;;;61.45;29.30;;;;;;;0.19;71.97;100123.88;124211;1148;22750;-63
2021/01/12 00:37:47;;;;;;;64.60;31.65;;;;;;;0.19;72.21;100121.19;124276;1148;22695;-63
2021/01/12 00:40:15;;;;;;;65.45;31.10;;;;;;;0.19;72.64;100119.34;124063;1148;22732;-62
2021/01/12 00:42:42;;;;;;;61.30;30.60;;;;;;;0.19;71.62;100111.31;124374;1148;22705;-63
2021/01/12 00:45:10;;;;;;;66.83;32.00;;;;;;;0.22;72.27;100113.64;124065;1148;22798;-63
2021/01/12 00:47:38;;;;;;;59.17;29.77;;;;;;;0.25;72.24;100117.82;124205;1148;22744;-62
2021/01/12 00:50:06;;;;;;;65.33;30.87;;;;;;;0.24;72.48;100114.30;124054;1148;22765;-63
2021/01/12 00:52:33;;;;;;;74.53;34.23;;;;;;;0.22;72.79;100108.28;124197;1148;22676;-63
2021/01/12 00:55:01;;;;;;;71.23;31.73;;;;;;;0.23;72.14;100118.00;124118;1149;22686;-63
2021/01/12 00:57:28;;;;;;;75.70;36.07;;;;;;;0.23;73.07;100115.31;119834;1149;26357;-62
2021/01/12 00:59:56;;;;;;;71.80;33.80;;;;;;;0.24;72.54;100105.43;119464;1148;22955;-62
2021/01/12 01:02:23;;;;;;;75.83;33.53;;;;;;;0.24;72.07;100106.27;119561;1149;26366;-62
2021/01/12 01:04:51;;;;;;;75.70;36.87;;;;;;;0.23;72.80;100107.27;124098;1148;22748;-63
2021/01/12 01:07:18;;;;;;;62.53;30.63;;;;;;;0.25;72.18;100115.14;124291;1148;23842;-63
2021/01/12 01:09:45;;;;;;;74.33;34.07;;;;;;;0.25;71.92;100117.82;123989;1148;22784;-63
2021/01/12 01:12:13;;;;;;;64.03;30.87;;;;;;;0.24;73.05;100113.47;124172;1148;22656;-63
2021/01/12 01:14:40;;;;;;;62.70;30.07;;;;;;;0.22;72.73;100110.97;124045;1148;22777;-63
2021/01/12 01:17:08;;;;;;;63.27;32.43;;;;;;;0.20;72.34;100109.47;124105;1148;24387;-64
2021/01/12 01:19:36;;;;;;;57.43;29.90;;;;;;;0.16;73.09;100108.98;124092;1149;22678;-63
2021/01/12 01:22:04;;;;;;;60.53;30.83;;;;;;;0.14;72.35;100111.03;124135;1148;22709;-64
2021/01/12 01:24:32;;;;;;;61.30;29.53;;;;;;;0.17;72.51;100116.01;124237;1148;22796;-64
2021/01/12 01:26:59;;;;;;;55.53;28.60;;;;;;;0.18;73.64;100112.31;124150;1148;23354;-63
2021/01/12 01:29:27;;;;;;;58.43;28.77;;;;;;;0.19;73.51;100108.63;124214;1148;23491;-63
2021/01/12 01:31:54;;;;;;;55.37;28.10;;;;;;;0.17;72.48;100109.81;124091;1148;22676;-63
2021/01/12 01:34:22;;;;;;;55.30;27.65;;;;;;;0.16;72.96;100113.50;124155;1148;22638;-63
2021/01/12 01:36:49;;;;;;;46.45;27.10;;;;;;;0.14;72.55;100108.34;124014;1149;22710;-63
2021/01/12 01:39:16;;;;;;;49.63;24.87;;;;;;;0.13;73.28;100108.52;124138;1148;23266;-64
2021/01/12 01:41:44;;;;;;;46.05;24.00;;;;;;;0.09;73.34;100105.35;124157;1148;23407;-64
2021/01/12 01:44:11;;;;;;;40.67;22.17;;;;;;;0.12;73.43;100109.53;124218;1148;22672;-63
2021/01/12 01:46:42;;;;;;;41.23;21.40;;;;;;;0.14;72.55;100104.83;123970;1148;22806;-63
2021/01/12 01:49:10;;;;;;;42.23;21.00;;;;;;;0.15;72.80;100111.83;124229;1148;23497;-63
2021/01/12 01:51:37;;;;;;;39.00;19.90;;;;;;;0.16;72.01;100111.66;124000;1149;22682;-64
2021/01/12 01:54:05;;;;;;;39.07;20.77;;;;;;;0.20;71.97;100104.11;124183;1148;22681;-63
2021/01/12 01:56:32;;;;;;;37.60;20.77;;;;;;;0.23;71.62;100109.12;124038;1148;22710;-64
2021/01/12 01:59:00;;;;;;;41.60;21.15;;;;;;;0.22;72.35;100102.92;124200;1148;22795;-63
2021/01/12 02:01:27;;;;;;;26.90;15.35;;;;;;;0.21;72.04;100101.25;124184;1148;26427;-63
2021/01/12 02:04:22;;;;;;;25.80;14.87;;;;;;;0.20;70.60;100096.91;124168;1149;22775;-64
2021/01/12 02:06:49;;;;;;;31.57;15.87;;;;;;;0.22;70.09;100097.56;124039;1148;22757;-63
2021/01/12 02:09:37;;;;;;;31.70;16.95;;;;;;;0.22;70.02;100096.73;124156;1149;22684;-64
2021/01/12 02:12:07;;;;;;;30.27;16.30;;;;;;;0.23;69.73;100091.20;123982;1149;22681;-64
2021/01/12 02:14:38;;;;;;;32.35;16.40;;;;;;;0.25;70.85;100089.17;124167;1149;22668;-63
2021/01/12 02:17:05;;;;;;;27.20;15.50;;;;;;;0.27;70.31;100087.16;124101;1148;22891;-64
2021/01/12 02:19:33;;;;;;;27.65;15.15;;;;;;;0.26;69.67;100087.34;124079;1149;22690;-64
2021/01/12 02:22:02;;;;;;;28.07;15.47;;;;;;;0.17;69.83;100062.42;123915;1148;22793;-64
2021/01/12 02:24:30;;;;;;;29.70;16.35;;;;;;;0.25;68.77;100078.46;124168;1149;22713;-63
2021/01/12 02:26:58;;;;;;;24.20;13.70;;;;;;;0.25;69.28;100075.78;124196;1148;23371;-64
2021/01/12 02:29:25;;;;;;;19.10;12.15;;;;;;;0.25;68.61;100074.95;124098;1148;22824;-63
2021/01/12 02:31:52;;;;;;;24.37;12.30;;;;;;;0.25;68.49;100075.78;124198;1148;22736;-63
2021/01/12 02:34:20;;;;;;;21.37;12.37;;;;;;;0.26;68.71;100072.09;124099;1148;23489;-63
2021/01/12 02:36:48;;;;;;;19.47;11.60;;;;;;;0.29;67.72;100066.35;124170;1149;22677;-63
2021/01/12 02:39:16;;;;;;;22.43;13.90;;;;;;;0.31;67.83;100060.81;124053;1149;22720;-63
2021/01/12 02:41:43;;;;;;;22.03;12.17;;;;;;;0.32;68.25;100059.80;124098;1148;22729;-63
2021/01/12 02:44:23;;;;;;;27.00;11.20;;;;;;;0.31;67.65;100056.29;124149;1148;22724;-63
2021/01/12 02:46:52;;;;;;;20.20;11.60;;;;;;;0.31;66.86;100050.93;124282;1148;22720;-63
2021/01/12 02:49:20;;;;;;;21.03;11.73;;;;;;;0.31;67.47;100047.41;124120;1148;22688;-63
2021/01/12 02:51:47;;;;;;;28.83;12.60;;;;;;;0.28;66.18;100045.95;124289;1148;22751;-63
2021/01/12 02:54:14;;;;;;;20.87;11.27;;;;;;;0.28;66.68;100047.80;124121;1148;22698;-63
2021/01/12 02:56:42;;;;;;;23.50;12.37;;;;;;;0.28;66.12;100043.27;124267;1148;23600;-63
2021/01/12 02:59:09;;;;;;;22.55;12.55;;;;;;;0.27;67.01;100043.45;124047;1148;22696;-63
2021/01/12 03:01:36;;;;;;;22.55;11.70;;;;;;;0.26;66.56;100039.09;124119;1148;22702;-63
2021/01/12 03:04:04;;;;;;;19.80;11.45;;;;;;;0.26;66.51;100042.61;124032;1148;22669;-63
2021/01/12 03:06:32;;;;;;;21.75;11.80;;;;;;;0.24;66.24;100033.92;124318;1148;23832;-63
2021/01/12 03:09:00;;;;;;;24.60;11.75;;;;;;;0.27;65.99;100036.24;124038;1149;22726;-63
2021/01/12 03:11:27;;;;;;;19.60;11.30;;;;;;;0.29;67.17;100036.04;124321;1148;22727;-63
2021/01/12 03:13:54;;;;;;;22.15;11.50;;;;;;;0.30;66.54;100030.50;124127;1149;22658;-63
2021/01/12 03:16:22;;;;;;;21.30;11.75;;;;;;;0.23;65.65;100021.53;124233;1148;23499;-63
2021/01/12 03:18:49;;;;;;;24.93;12.53;;;;;;;0.32;65.85;100033.00;124172;1148;22662;-63
2021/01/12 03:21:17;;;;;;;22.50;11.40;;;;;;;0.30;66.26;100041.22;124162;1148;22723;-63
2021/01/12 03:23:44;;;;;;;26.87;13.53;;;;;;;0.31;66.37;100028.66;124186;1149;23383;-63
2021/01/12 03:26:12;;;;;;;27.67;12.97;;;;;;;0.30;66.05;100026.98;124054;1148;22751;-63
2021/01/12 03:28:39;;;;;;;25.15;13.10;;;;;;;0.31;65.14;100025.97;124239;1148;22707;-62
2021/01/12 03:31:06;;;;;;;26.03;12.50;;;;;;;0.32;66.35;100027.64;124020;1148;22683;-63
2021/01/12 03:33:34;;;;;;;24.37;13.33;;;;;;;0.31;65.66;100026.81;124203;1148;23866;-62
2021/01/12 03:36:02;;;;;;;24.50;13.50;;;;;;;0.31;65.44;100021.45;124224;1148;22707;-62
2021/01/12 03:38:30;;;;;;;28.20;14.47;;;;;;;0.33;65.73;100014.07;124172;1149;22658;-63
2021/01/12 03:40:58;;;;;;;25.87;14.40;;;;;;;0.34;66.29;100014.91;123984;1148;23041;-63
2021/01/12 03:43:25;;;;;;;30.23;15.37;;;;;;;0.33;65.53;100010.55;124106;1149;22722;-63
2021/01/12 03:45:52;;;;;;;27.13;15.43;;;;;;;0.32;66.32;99999.00;124058;1148;22665;-63
2021/01/12 03:48:21;;;;;;;26.70;14.07;;;;;;;0.33;66.43;100002.52;124253;1148;23863;-63
2021/01/12 03:50:49;;;;;;;28.83;13.97;;;;;;;0.32;66.30;99999.00;123999;1148;22715;-63
2021/01/12 03:53:17;;;;;;;28.95;15.15;;;;;;;0.31;66.17;99991.97;124369;1148;22689;-62
2021/01/12 03:58:24;;;;;;;24.10;13.75;;;;;;;0.28;65.64;100000.39;120135;1147;23228;-62
2021/01/12 04:00:52;;;;;;;23.13;11.80;;;;;;;0.27;65.04;99988.01;124115;1147;23584;-63
2021/01/12 04:03:19;;;;;;;29.20;15.70;;;;;;;0.25;65.96;99994.55;124313;1147;22866;-64
2021/01/12 04:05:47;;;;;;;22.03;12.53;;;;;;;0.25;65.02;99995.39;124353;1145;23453;-63
2021/01/12 04:08:15;;;;;;;23.80;13.75;;;;;;;0.23;66.40;99991.22;124133;1145;23400;-63
2021/01/12 04:10:43;;;;;;;22.03;13.43;;;;;;;0.23;65.28;99984.02;124243;1146;22670;-63
2021/01/12 04:13:10;;;;;;;24.80;13.30;;;;;;;0.22;66.67;99986.87;124298;1147;25661;-63
2021/01/12 04:15:37;;;;;;;24.97;13.73;;;;;;;0.21;66.53;99978.00;124250;1147;22694;-64
2021/01/12 04:18:05;;;;;;;26.53;14.47;;;;;;;0.22;65.58;99978.83;124121;1148;22792;-63
2021/01/12 04:20:32;;;;;;;27.27;15.23;;;;;;;0.21;67.00;99980.67;124239;1148;22719;-63
2021/01/12 04:22:59;;;;;;;27.23;14.93;;;;;;;0.20;66.31;99981.69;124245;1147;22679;-63
2021/01/12 04:25:27;;;;;;;25.95;15.00;;;;;;;0.18;67.52;99975.67;124315;1148;22775;-64
2021/01/12 04:27:54;;;;;;;28.15;15.50;;;;;;;0.18;66.74;99981.03;124134;1148;22766;-64
2021/01/12 04:30:22;;;;;;;30.03;15.20;;;;;;;0.17;68.03;99981.20;124103;1149;22707;-64
2021/01/12 04:32:49;;;;;;;27.65;15.70;;;;;;;0.16;68.19;99987.58;124105;1147;22676;-63
2021/01/12 04:35:16;;;;;;;29.20;16.37;;;;;;;0.13;67.78;99978.08;124214;1148;22729;-64
2021/01/12 04:37:44;;;;;;;29.07;16.47;;;;;;;0.11;67.88;99980.09;124011;1148;22785;-63
2021/01/12 04:40:12;;;;;;;27.93;16.37;;;;;;;0.08;68.70;99980.45;124279;1147;22727;-64
2021/01/12 04:42:40;;;;;;;26.67;16.57;;;;;;;0.07;69.37;99985.98;124166;1146;22745;-64
2021/01/12 04:45:08;;;;;;;28.30;16.73;;;;;;;0.06;69.28;99982.47;124130;1149;23287;-64
2021/01/12 04:47:35;;;;;;;29.00;15.83;;;;;;;0.07;70.06;99981.45;124486;1144;22705;-64
2021/01/12 04:50:04;;;;;;;28.70;16.15;;;;;;;0.08;69.69;99975.09;124683;1142;22702;-64
2021/01/12 04:52:47;;;;;;;31.97;18.03;;;;;;;0.11;70.54;99974.73;124651;1144;22691;-64
2021/01/12 04:55:16;;;;;;;30.40;16.53;;;;;;;0.13;70.55;99963.84;124747;1142;22715;-64
2021/01/12 04:57:43;;;;;;;32.35;18.15;;;;;;;0.13;71.20;99961.17;124558;1143;22807;-64
2021/01/12 05:00:18;;;;;;;29.00;16.90;;;;;;;0.09;71.24;99968.72;124620;1144;22671;-64
2021/01/12 05:03:01;;;;;;;28.60;16.95;;;;;;;0.07;71.66;99964.55;124744;1143;22686;-63
2021/01/12 05:05:38;;;;;;;33.43;19.37;;;;;;;0.03;71.96;99960.56;124587;1143;23909;-64
2021/01/12 05:08:07;;;;;;;30.40;17.80;;;;;;;-0.01;72.01;99968.14;124573;1142;22726;-64
2021/01/12 05:10:45;;;;;;;29.90;17.10;;;;;;;-0.04;72.76;99963.97;124579;1143;22717;-64
2021/01/12 05:13:13;;;;;;;32.60;19.40;;;;;;;-0.06;71.77;99970.52;124548;1145;22775;-63
2021/01/12 05:15:40;;;;;;;32.10;17.70;;;;;;;-0.07;72.68;99968.84;123657;1143;25964;-63
2021/01/12 05:18:10;;;;;;;30.87;18.57;;;;;;;-0.07;72.66;99968.84;124558;1144;22900;-64
2021/01/12 05:20:42;;;;;;;34.40;19.97;;;;;;;-0.08;73.45;99972.53;124525;1144;22747;-64
2021/01/12 05:23:13;;;;;;;30.30;18.27;;;;;;;-0.10;73.34;99963.84;124618;1144;22696;-63
2021/01/12 05:25:41;;;;;;;34.10;19.40;;;;;;;-0.12;73.41;99973.89;124491;1144;23411;-64
2021/01/12 05:28:10;;;;;;;30.43;17.93;;;;;;;-0.15;73.06;99958.20;124796;1143;22785;-64
2021/01/12 05:30:38;;;;;;;33.03;18.77;;;;;;;-0.16;74.01;99970.76;124526;1144;23529;-64
2021/01/12 05:33:06;;;;;;;34.50;20.40;;;;;;;-0.15;74.58;99959.04;124576;1143;22771;-64
2021/01/12 05:35:37;;;;;;;33.93;19.33;;;;;;;-0.14;74.53;99970.55;124517;1144;23635;-64
2021/01/12 05:38:06;;;;;;;30.83;19.10;;;;;;;-0.15;74.58;99966.23;124630;1144;22721;-64
2021/01/12 05:40:35;;;;;;;33.87;20.20;;;;;;;-0.15;74.85;99966.23;124527;1142;23313;-63
2021/01/12 05:43:13;;;;;;;30.90;18.33;;;;;;;-0.18;74.08;99967.42;124535;1143;22705;-64
2021/01/12 05:45:41;;;;;;;;;;;;;;;-0.19;74.07;99970.27;124558;1144;22654;-64
2021/01/12 05:48:09;;;;;;;28.17;17.07;;;;;;;-0.18;74.75;99977.30;124625;1144;21394;-64
2021/01/12 05:50:37;;;;;;;34.63;19.93;;;;;;;-0.19;75.37;99971.11;124633;1142;22708;-64
2021/01/12 05:53:14;;;;;;;36.63;20.67;;;;;;;-0.19;74.77;99967.59;124728;1143;22673;-63
2021/01/12 05:55:44;;;;;;;32.87;19.10;;;;;;;-0.19;75.12;99972.95;124403;1143;23638;-63
2021/01/12 05:58:11;;;;;;;32.30;17.97;;;;;;;-0.18;74.86;99975.45;124646;1144;24035;-63
2021/01/12 06:00:41;;;;;;;32.13;18.90;;;;;;;-0.17;75.84;99978.97;124512;1144;22744;-63
2021/01/12 06:03:12;;;;;;;30.90;18.63;;;;;;;-0.17;75.39;99981.64;124538;1144;22689;-63
2021/01/12 06:05:43;;;;;;;35.33;19.67;;;;;;;-0.21;75.95;99974.97;124454;1144;22683;-63
2021/01/12 06:08:14;;;;;;;37.10;21.43;;;;;;;-0.22;75.86;99981.33;124597;1144;22700;-63
2021/01/12 06:10:44;;;;;;;35.07;20.60;;;;;;;-0.24;75.17;99978.83;124563;1143;23296;-63
2021/01/12 06:13:16;;;;;;;40.35;20.70;;;;;;;-0.25;75.98;99981.68;124552;1142;22695;-63
2021/01/12 06:15:47;;;;;;;42.57;20.37;;;;;;;-0.24;74.85;99989.54;124546;1143;22690;-63
2021/01/12 06:18:16;;;;;;;38.50;19.73;;;;;;;-0.24;75.77;99983.34;124663;1144;22779;-63
2021/01/12 06:20:56;;;;;;;37.53;17.97;;;;;;;-0.23;74.94;99979.66;124847;1144;22821;-64
2021/01/12 06:23:46;;;;;;;35.37;19.43;;;;;;;-0.22;75.50;99992.04;124652;1143;24255;-64
2021/01/12 06:26:14;;;;;;;34.53;18.50;;;;;;;-0.22;74.65;99986.69;124755;1142;23466;-64
2021/01/12 06:28:42;;;;;;;31.10;16.73;;;;;;;-0.24;75.34;99983.34;124638;1144;22691;-64
2021/01/12 06:31:10;;;;;;;28.80;15.73;;;;;;;-0.25;74.08;99979.00;124768;1144;22693;-64
2021/01/12 06:33:38;;;;;;;24.53;15.13;;;;;;;-0.24;73.84;99975.31;124574;1144;22685;-64
2021/01/12 06:36:06;;;;;;;26.75;15.65;;;;;;;-0.26;74.55;99977.33;124615;1142;22756;-64
2021/01/12 06:38:37;;;;;;;27.57;14.90;;;;;;;-0.30;73.57;99974.20;124420;1144;22713;-64
2021/01/12 06:41:07;;;;;;;28.60;15.63;;;;;;;-0.31;74.27;99982.41;124694;1143;22731;-64
2021/01/12 06:43:34;;;;;;;30.93;15.63;;;;;;;-0.33;74.30;99969.19;124719;1142;22675;-64
2021/01/12 06:46:02;;;;;;;29.13;14.90;;;;;;;-0.33;73.30;99968.36;124441;1144;22696;-64
2021/01/12 06:48:32;;;;;;;29.40;15.93;;;;;;;-0.35;73.89;99973.89;124678;1142;23489;-64
2021/01/12 06:51:02;;;;;;;24.37;13.93;;;;;;;-0.35;73.40;99963.17;124695;1144;22705;-65
2021/01/12 06:53:30;;;;;;;30.00;15.93;;;;;;;-0.46;73.31;99956.39;124404;1144;23900;-64
2021/01/12 06:56:07;;;;;;;34.63;16.90;;;;;;;-0.39;72.58;99965.36;124570;1143;22680;-65
2021/01/12 06:58:34;;;;;;;32.83;17.40;;;;;;;-0.40;72.48;99969.05;124644;1144;22664;-65
2021/01/12 07:01:02;;;;;;;30.40;16.00;;;;;;;-0.41;72.87;99961.19;124762;1142;22864;-64
2021/01/12 07:03:32;;;;;;;28.83;14.30;;;;;;;-0.40;73.37;99957.51;124650;1144;22760;-64
2021/01/12 07:06:01;;;;;;;34.00;16.63;;;;;;;-0.43;73.10;99963.20;124687;1144;22689;-65
2021/01/12 07:08:30;;;;;;;36.47;18.60;;;;;;;-0.44;72.31;99956.22;124617;1144;22684;-64
2021/01/12 07:11:03;;;;;;;44.80;20.23;;;;;;;-0.45;72.98;99958.06;124631;1144;22698;-68
2021/01/12 07:13:39;;;;;;;29.30;15.03;;;;;;;-0.44;72.96;99956.22;124650;1144;22742;-66
2021/01/12 07:16:14;;;;;;;29.30;15.77;;;;;;;-0.44;72.83;99958.89;124684;1142;23625;-67
2021/01/12 07:18:56;;;;;;;29.17;15.93;;;;;;;-0.42;72.65;99962.20;124393;1143;26739;-69
2021/01/12 07:21:28;;;;;;;31.87;16.43;;;;;;;-0.39;73.41;99962.69;124725;1144;22709;-68
2021/01/12 07:24:02;;;;;;;29.17;15.83;;;;;;;-0.36;72.62;99958.83;124532;1144;23248;-68
2021/01/12 07:26:33;;;;;;;31.70;15.17;;;;;;;-0.39;73.20;99957.34;122940;1144;22903;-68
2021/01/12 07:29:04;;;;;;;43.37;19.47;;;;;;;-0.41;72.57;99953.16;121496;1144;26363;-68
2021/01/12 07:31:32;;;;;;;26.10;13.57;;;;;;;-0.42;72.18;99955.01;121606;1144;26107;-68
2021/01/12 07:33:59;;;;;;;23.30;12.50;;;;;;;-0.45;72.73;99951.88;121471;1144;23057;-68
2021/01/12 07:36:27;;;;;;;28.00;14.63;;;;;;;-0.45;72.40;99947.36;121687;1144;26495;-67
2021/01/12 07:38:55;;;;;;;31.67;14.40;;;;;;;-0.45;72.58;99944.68;121686;1144;22908;-67
2021/01/12 07:41:22;;;;;;;26.97;13.73;;;;;;;-0.44;72.25;99945.52;121549;1144;25558;-67
2021/01/12 07:43:50;;;;;;;38.87;17.37;;;;;;;-0.43;72.86;99945.31;121652;1144;22943;-70
2021/01/12 07:46:22;;;;;;;41.33;19.33;;;;;;;-0.41;73.04;99942.45;121584;1144;22938;-69
2021/01/12 07:48:50;;;;;;;29.70;16.60;;;;;;;-0.40;72.41;99947.64;121459;1144;22927;-68
2021/01/12 07:51:17;;;;;;;39.57;19.67;;;;;;;-0.42;72.72;99938.95;121262;1144;22884;-67
2021/01/12 07:53:45;;;;;;;71.63;27.77;;;;;;;-0.43;72.62;99936.44;121221;1144;23402;-68
2021/01/12 07:56:12;;;;;;;37.00;18.00;;;;;;;-0.43;73.10;99923.89;121225;1144;22901;-67
2021/01/12 07:58:39;;;;;;;31.10;16.23;;;;;;;-0.41;72.62;99935.27;121311;1144;26353;-68
2021/01/12 08:01:07;;;;;;;27.27;12.73;;;;;;;-0.43;72.87;99925.73;121285;1143;23205;-66
2021/01/12 08:03:38;;;;;;;28.83;16.00;;;;;;;-0.45;72.22;99933.14;121258;1144;22979;-67
2021/01/12 08:06:06;;;;;;;21.65;12.65;;;;;;;-0.46;71.98;99928.79;121320;1144;22929;-67
2021/01/12 08:08:33;;;;;;;25.33;13.70;;;;;;;-0.47;72.27;99932.48;121550;1144;24336;-68
2021/01/12 08:11:02;;;;;;;27.47;16.23;;;;;;;-0.49;72.33;99934.49;121429;1144;22943;-68
2021/01/12 08:13:30;;;;;;;22.50;12.50;;;;;;;-0.50;72.22;99932.82;124637;1144;22771;-68
2021/01/12 08:15:58;;;;;;;26.90;15.20;;;;;;;-0.53;72.36;99936.68;124724;1143;22775;-68
2021/01/12 08:18:25;;;;;;;27.80;14.63;;;;;;;-0.57;71.94;99939.87;124608;1142;22679;-68
2021/01/12 08:20:54;;;;;;;33.77;17.73;;;;;;;-0.59;71.54;99936.56;124445;1144;22714;-68
2021/01/12 08:23:21;;;;;;;22.83;12.27;;;;;;;-0.60;71.70;99930.38;124649;1144;22711;-67
2021/01/12 08:25:49;;;;;;;30.03;17.33;;;;;;;-0.59;72.76;99929.38;123791;1144;22926;-67
2021/01/12 08:28:16;;;;;;;25.17;13.70;;;;;;;-0.59;71.91;99933.89;121251;1144;22954;-66
2021/01/12 08:30:45;;;;;;;30.97;17.23;;;;;;;-0.58;72.97;99924.86;121226;1144;23425;-65
2021/01/12 08:33:32;;;;;;;36.17;17.67;;;;;;;-0.57;72.66;99930.00;121125;1144;26066;-66
2021/01/12 08:36:09;;;;;;;24.43;12.93;;;;;;;-0.54;72.37;99939.53;121158;1144;22903;-66
2021/01/12 08:38:41;;;;;;;24.18;12.68;;;;;;;-0.54;72.08;99924.31;120984;1144;22937;-66
2021/01/12 08:41:09;;;;;;;32.87;16.93;;;;;;;-0.52;72.25;99922.29;121051;1144;22924;-69
2021/01/12 08:43:38;;;;;;;31.90;15.05;;;;;;;-0.60;72.74;99903.63;121007;1145;25656;-66
2021/01/12 08:46:08;;;;;;;31.57;16.90;;;;;;;-0.46;73.34;99926.95;121309;1144;23028;-66
2021/01/12 08:48:36;;;;;;;21.57;12.77;;;;;;;-0.46;72.74;99924.27;121185;1144;22975;-66
2021/01/12 08:51:21;;;;;;;30.90;15.27;;;;;;;-0.46;72.32;99926.12;121171;1144;23030;-67
2021/01/12 08:53:55;;;;;;;24.03;12.90;;;;;;;-0.49;73.18;99913.91;121097;1144;22859;-65
2021/01/12 08:56:23;;;;;;;24.87;12.13;;;;;;;-0.51;72.44;99920.45;121187;1144;22945;-65
2021/01/12 08:59:01;;;;;;;22.70;13.17;;;;;;;-0.50;73.10;99922.12;124665;1144;22837;-67
2021/01/12 09:01:30;;;;;;;25.83;13.50;;;;;;;-0.49;72.27;99921.11;124787;1144;22692;-67
2021/01/12 09:04:08;;;;;;;22.83;13.07;;;;;;;-0.49;72.75;99916.59;124683;1144;23411;-67
2021/01/12 09:06:36;;;;;;;21.73;12.83;;;;;;;-0.46;72.17;99910.89;124696;1142;22881;-67
2021/01/12 09:09:13;;;;;;;24.73;14.43;;;;;;;-0.47;73.05;99911.90;124729;1143;22718;-67
2021/01/12 09:11:45;;;;;;;;;;;;;;;-0.47;72.06;99914.58;124753;1142;22698;-67
2021/01/12 09:14:12;;;;;;;20.80;12.43;;;;;;;-0.47;71.86;99909.22;124688;1144;21458;-67
2021/01/12 09:16:40;;;;;;;22.13;13.00;;;;;;;-0.49;72.87;99913.91;124672;1142;22790;-67
2021/01/12 09:19:15;;;;;;;20.40;11.93;;;;;;;-0.48;72.30;99909.39;124602;1143;22737;-67
2021/01/12 09:21:43;;;;;;;23.50;12.67;;;;;;;-0.47;72.07;99909.22;124854;1142;23559;-67
2021/01/12 09:24:18;;;;;;;23.77;12.70;;;;;;;-0.45;72.13;99903.70;124511;1144;22816;-67
2021/01/12 09:26:45;;;;;;;26.10;12.80;;;;;;;-0.43;72.22;99901.64;124718;1144;22815;-68
2021/01/12 09:29:13;;;;;;;18.83;11.53;;;;;;;-0.44;72.73;99898.17;124624;1144;22695;-67
2021/01/12 09:31:47;;;;;;;20.97;11.60;;;;;;;-0.44;72.18;99900.84;124867;1144;23456;-68
2021/01/12 09:34:33;;;;;;;21.63;13.60;;;;;;;-0.42;71.80;99898.80;124791;1142;22661;-68
2021/01/12 09:37:00;;;;;;;23.20;13.60;;;;;;;-0.42;72.77;99893.44;124672;1144;23527;-67
2021/01/12 09:39:28;;;;;;;27.10;13.70;;;;;;;-0.37;71.78;99885.72;124546;1144;23504;-68
2021/01/12 09:41:55;;;;;;;25.10;13.20;;;;;;;-0.34;72.13;99881.86;124741;1143;22688;-68
2021/01/12 09:44:22;;;;;;;19.55;12.05;;;;;;;-0.33;71.89;99880.84;124658;1144;22844;-67
2021/01/12 09:46:50;;;;;;;22.60;12.37;;;;;;;-0.30;72.17;99860.92;124749;1143;22672;-67
2021/01/12 09:49:17;;;;;;;18.53;10.37;;;;;;;-0.29;71.11;99854.56;124615;1144;22720;-67
2021/01/12 09:51:44;;;;;;;37.67;17.80;;;;;;;-0.26;71.46;99851.50;124671;1143;22717;-68
2021/01/12 09:54:12;;;;;;;32.23;16.70;;;;;;;-0.23;70.67;99845.79;124853;1144;22763;-67
2021/01/12 09:56:39;;;;;;;22.40;12.80;;;;;;;-0.24;70.62;99839.60;124620;1142;22808;-67
2021/01/12 09:59:06;;;;;;;26.97;15.33;;;;;;;-0.23;70.67;99845.79;124768;1143;23356;-68
2021/01/12 10:01:34;;;;;;;26.77;13.43;;;;;;;-0.24;70.25;99828.89;124612;1143;22685;-67
2021/01/12 10:04:01;;;;;;;24.90;13.87;;;;;;;-0.24;71.34;99826.21;124643;1144;22696;-68
2021/01/12 10:06:31;;;;;;;28.37;15.47;;;;;;;-0.23;70.62;99821.69;124397;1143;22681;-67
2021/01/12 10:08:58;;;;;;;26.23;14.00;;;;;;;-0.21;70.44;99816.99;124788;1143;22686;-67
2021/01/12 10:11:28;;;;;;;29.87;13.67;;;;;;;-0.19;71.27;99809.61;124499;1144;22696;-67
2021/01/12 10:13:55;;;;;;;26.53;12.73;;;;;;;-0.20;70.99;99795.39;124703;1144;22649;-68
2021/01/12 10:16:23;;;;;;;24.80;12.90;;;;;;;-0.20;70.90;99800.75;124511;1144;23302;-68
2021/01/12 10:18:51;;;;;;;34.90;19.80;;;;;;;-0.19;71.16;99793.55;124850;1144;23676;-66
2021/01/12 10:21:18;;;;;;;38.80;18.13;;;;;;;-0.19;71.11;99789.03;124649;1142;22685;-67
2021/01/12 10:23:46;;;;;;;34.60;19.03;;;;;;;-0.24;70.37;99771.83;124811;1144;23533;-66
2021/01/12 10:26:15;;;;;;;29.93;15.07;;;;;;;-0.14;71.15;99777.75;124519;1143;22708;-67
2021/01/12 10:28:42;;;;;;;29.23;16.20;;;;;;;-0.13;70.01;99777.56;124679;1143;22695;-67
2021/01/12 10:31:13;;;;;;;27.30;13.53;;;;;;;-0.10;70.67;99774.53;124520;1144;22829;-67
2021/01/12 10:33:41;;;;;;;40.73;22.20;;;;;;;-0.11;70.14;99769.36;124751;1144;23467;-67
2021/01/12 10:36:15;;;;;;;24.93;15.87;;;;;;;-0.14;69.98;99762.52;124400;1144;23268;-67
2021/01/12 10:38:43;;;;;;;25.73;14.23;;;;;;;-0.16;70.87;99761.89;124674;1144;22696;-67
2021/01/12 10:41:11;;;;;;;20.33;12.20;;;;;;;-0.17;70.39;99759.39;124830;1144;23957;-67
2021/01/12 10:43:39;;;;;;;26.03;15.13;;;;;;;-0.17;70.87;99751.36;124671;1143;22761;-67
2021/01/12 10:46:06;;;;;;;30.77;15.43;;;;;;;-0.18;70.99;99752.38;124818;1142;22698;-67
2021/01/12 10:48:34;;;;;;;24.47;14.60;;;;;;;-0.19;70.26;99748.03;124592;1143;22772;-67
2021/01/12 10:51:01;;;;;;;24.77;14.43;;;;;;;-0.21;69.96;99750.05;124742;1143;22752;-67
2021/01/12 10:53:29;;;;;;;24.00;13.80;;;;;;;-0.21;70.38;99739.34;124651;1142;23492;-67
2021/01/12 10:55:57;;;;;;;23.30;12.13;;;;;;;-0.24;69.74;99735.19;124828;1143;23310;-67
2021/01/12 10:58:25;;;;;;;26.17;13.03;;;;;;;-0.23;69.62;99733.34;124575;1142;22739;-67
2021/01/12 11:00:52;;;;;;;23.50;13.83;;;;;;;-0.21;70.22;99736.66;124868;1144;22763;-67
2021/01/12 11:03:20;;;;;;;21.47;11.87;;;;;;;-0.22;70.61;99741.19;124625;1144;23920;-67
2021/01/12 11:05:53;;;;;;;25.23;13.13;;;;;;;-0.21;70.21;99744.70;124820;1143;22684;-67
2021/01/12 11:08:20;;;;;;;20.53;12.70;;;;;;;-0.21;70.33;99737.50;124610;1144;22713;-67
2021/01/12 11:10:52;;;;;;;21.63;12.27;;;;;;;-0.23;69.23;99736.02;124794;1144;22679;-67
2021/01/12 11:13:20;;;;;;;26.60;13.90;;;;;;;-0.22;70.16;99729.65;124554;1143;23496;-67
2021/01/12 11:15:47;;;;;;;27.70;13.90;;;;;;;-0.24;69.61;99726.31;124703;1142;22704;-66
2021/01/12 11:18:15;;;;;;;30.40;16.43;;;;;;;-0.26;68.66;99734.53;124553;1144;22741;-66
2021/01/12 11:20:43;;;;;;;26.90;13.23;;;;;;;-0.28;68.32;99727.69;124672;1144;22698;-66
2021/01/12 11:23:11;;;;;;;22.07;11.60;;;;;;;-0.34;69.32;99723.09;124534;1144;22797;-66